Main page
METAR-TAF:

METAR-TAF

Airports :

Pensacola International Airport

Pensacola, Florida, United States

latitude: 30-28-41N, longitude: 087-11-13W, elevation: 118 ft

Current weather observation

The report was made 48 minutes ago, at 08:53 UTC
Wind 9 mph from the North
Temperature 63°F
Humidity 77%
Pressure 30.04 in. Hg
Visibility: 10 miles
Clear sky

METAR: KPNS 240853Z AUTO 36008KT 10SM CLR 17/13 A3004 RMK AO2 SLP174 T01670128 53003

Time: 04:41 (09:41 UTC)

Forecast

The report was made 4 hours and 21 minutes ago, at 05:20 UTC
Forecast valid from 24 at 06 UTC to 25 at 06 UTC
Wind 7 mph from the North
Visibility: 6 miles
Clear sky
From 24 at 1400 UTC
Wind 12 mph from the East/Northeast
Visibility: 6 miles
Clear sky
From 25 at 0200 UTC
Wind 6 mph from the North
Visibility: 6 miles
Clear sky

TAF: KPNS 240520Z 2406/2506 36006KT P6SM SKC FM241400 06010KT P6SM SKC FM250200 01005KT P6SM SKC

Weather observations and forecasts of more than 4000 airports (METAR and TAF reports).

The available stations are represented by yellow and red dots on the map.

Hover mouse over dot to see the name of the station.

Then click to see weather observations and forecasts.

To change the map : click on the green buttons with a black cross to zoom in, on the green button with a dash to zoom out, or on the green arrows for adjacent maps.


METAR-TAF: